LFAT/LTQ METAR and TAF weather

Enter ICAO airport designator
Station Type Date Time Source
LFAT METAR 2022/08/12 16:00 UTC NOAA

LFAT 121600Z AUTO 02014KT CAVOK 32/13 Q1014 TEMPO 04015G25KT


Station Type Date Time Source
LFAT Decoded METAR 2022/08/12 16:00 UTC NOAA

Le Touquet, France (LFAT) 50-31N 001-37E 14M
Aug 12, 2022 - 12:00 PM EDT / 2022.08.12 1600 UTC
Wind: from the NNE (020 degrees) at 16 MPH (14 KT):0
Visibility: greater than 7 mile(s):0
Temperature: 89 F (32 C)
Dew Point: 55 F (13 C)
Relative Humidity: 31%
Pressure (altimeter): 29.94 in. Hg (1014 hPa)
ob: LFAT 121600Z AUTO 02014KT CAVOK 32/13 Q1014 TEMPO 04015G25KT
cycle: 16

Station Type Date Time Source
LFAT TAF 2018/07/14 09:21 UTC NOAA

TAF TAF LFAT 140800Z 1409/1421 09004KT 8000 NSC
BECMG 1409/1411 30010KT

Example: see airport list